createdAt,value
2023-04-15T00:01:45.543Z,100745.41
2023-04-15T00:04:13.451Z,100744.66
2023-04-15T00:06:41.822Z,100739.38
2023-04-15T00:09:11.457Z,100743.25
2023-04-15T00:11:39.121Z,100740.72
2023-04-15T00:14:07.487Z,100741.81
2023-04-15T00:16:35.261Z,100744.00
2023-04-15T00:19:03.117Z,100747.84
2023-04-15T00:21:30.995Z,100745.59
2023-04-15T00:23:58.717Z,100747.63
2023-04-15T00:26:27.960Z,100747.88
2023-04-15T00:28:55.729Z,100745.59
2023-04-15T00:31:23.773Z,100740.66
2023-04-15T00:33:51.666Z,100748.59
2023-04-15T00:36:19.388Z,100749.53
2023-04-15T00:38:47.213Z,100746.19
2023-04-15T00:41:15.032Z,100748.97
2023-04-15T00:43:44.521Z,100742.00
2023-04-15T00:46:14.476Z,100745.63
2023-04-15T00:48:42.441Z,100744.03
2023-04-15T00:51:10.679Z,100747.66
2023-04-15T00:53:38.475Z,100750.28
2023-04-15T00:56:07.242Z,100759.28
2023-04-15T00:58:35.037Z,100756.88
2023-04-15T01:01:05.201Z,100756.56
2023-04-15T01:03:33.023Z,100756.44
2023-04-15T01:06:03.608Z,100762.75
2023-04-15T01:08:32.195Z,100757.03
2023-04-15T01:11:02.178Z,100751.97
2023-04-15T01:13:30.156Z,100758.34
2023-04-15T01:15:58.131Z,100748.25
2023-04-15T01:18:29.582Z,100760.25
2023-04-15T01:20:57.558Z,100763.13
2023-04-15T01:23:25.393Z,100761.56
2023-04-15T01:25:54.769Z,100758.22
2023-04-15T01:28:22.481Z,100747.88
2023-04-15T01:30:50.348Z,100755.94
2023-04-15T01:33:18.007Z,100747.66
2023-04-15T01:35:46.444Z,100752.78
2023-04-15T01:38:14.299Z,100745.47
2023-04-15T01:40:42.122Z,100751.50
2023-04-15T01:43:11.226Z,100749.06
2023-04-15T01:45:38.867Z,100757.47
2023-04-15T01:48:07.078Z,100755.78
2023-04-15T01:50:36.853Z,100762.25
2023-04-15T01:53:04.957Z,100760.81
2023-04-15T01:55:32.716Z,100758.41
2023-04-15T01:58:01.240Z,100763.09
2023-04-15T02:00:30.895Z,100763.19
2023-04-15T02:02:59.367Z,100763.44
2023-04-15T02:05:27.683Z,100760.91
2023-04-15T02:07:55.613Z,100766.53
2023-04-15T02:10:23.400Z,100763.88
2023-04-15T02:12:51.070Z,100769.41
2023-04-15T02:15:19.084Z,100773.00
2023-04-15T02:17:51.137Z,100776.56
2023-04-15T02:20:21.027Z,100776.69
2023-04-15T02:22:48.807Z,100765.50
2023-04-15T02:25:17.897Z,100771.13
2023-04-15T02:27:45.732Z,100783.56
2023-04-15T02:30:13.646Z,100774.13
2023-04-15T02:32:44.620Z,100782.22
2023-04-15T02:35:13.738Z,100779.00
2023-04-15T02:37:44.030Z,100780.28
2023-04-15T02:40:13.132Z,100790.22
2023-04-15T02:42:41.220Z,100800.13
2023-04-15T02:45:09.953Z,100801.22
2023-04-15T02:47:37.737Z,100796.97
2023-04-15T02:50:05.965Z,100805.97
2023-04-15T02:52:34.996Z,100811.34
2023-04-15T02:55:04.305Z,100812.06
2023-04-15T02:57:31.986Z,100807.63
2023-04-15T02:59:59.622Z,100805.84
2023-04-15T03:02:27.560Z,100811.34
2023-04-15T03:04:56.221Z,100808.00
2023-04-15T03:07:23.959Z,100809.88
2023-04-15T03:09:53.104Z,100816.81
2023-04-15T03:12:20.780Z,100819.47
2023-04-15T03:14:48.536Z,100824.84
2023-04-15T03:17:16.501Z,100821.38
2023-04-15T03:19:45.032Z,100822.31
2023-04-15T03:22:12.807Z,100821.59
2023-04-15T03:24:40.561Z,100831.31
2023-04-15T03:27:09.654Z,100830.47
2023-04-15T03:29:37.470Z,100836.88
2023-04-15T03:32:05.812Z,100829.09
2023-04-15T03:34:33.558Z,100826.59
2023-04-15T03:37:01.407Z,100828.38
2023-04-15T03:39:29.099Z,100821.75
2023-04-15T03:41:56.762Z,100832.28
2023-04-15T03:44:26.011Z,100833.97
2023-04-15T03:46:53.678Z,100838.28
2023-04-15T03:49:23.033Z,100834.19
2023-04-15T03:51:50.741Z,100841.56
2023-04-15T03:54:18.451Z,100841.56
2023-04-15T03:56:46.172Z,100848.41
2023-04-15T03:59:13.901Z,100846.84
2023-04-15T04:01:43.072Z,100860.00
2023-04-15T04:04:10.873Z,100858.22
2023-04-15T04:06:38.763Z,100847.91
2023-04-15T04:09:06.481Z,100864.75
2023-04-15T04:11:34.291Z,100862.34
2023-04-15T04:14:02.132Z,100871.31
2023-04-15T04:16:29.975Z,100872.16
2023-04-15T04:18:59.376Z,100888.16
2023-04-15T04:21:27.602Z,100878.03
2023-04-15T04:23:56.687Z,100876.34
2023-04-15T04:26:24.552Z,100877.19
2023-04-15T04:28:52.352Z,100878.47
2023-04-15T04:31:20.201Z,100880.28
2023-04-15T04:33:47.948Z,100883.94
2023-04-15T04:36:17.123Z,100887.53
2023-04-15T04:38:44.829Z,100891.94
2023-04-15T04:41:12.536Z,100889.31
2023-04-15T04:43:40.170Z,100886.78
2023-04-15T04:46:07.912Z,100885.00
2023-04-15T04:48:35.857Z,100887.63
2023-04-15T04:51:03.736Z,100889.44
2023-04-15T04:53:32.964Z,100887.75
2023-04-15T04:56:00.815Z,100896.59
2023-04-15T04:58:28.539Z,100894.16
2023-04-15T05:00:56.719Z,100899.41
2023-04-15T05:03:24.681Z,100889.84
2023-04-15T05:05:52.442Z,100894.16
2023-04-15T05:08:20.349Z,100895.09
2023-04-15T05:10:49.652Z,100901.09
2023-04-15T05:13:17.356Z,100897.53
2023-04-15T05:15:45.474Z,100901.88
2023-04-15T05:18:13.202Z,100906.19
2023-04-15T05:20:40.897Z,100914.06
2023-04-15T05:23:08.930Z,100905.34
2023-04-15T05:25:36.997Z,100913.84
2023-04-15T05:28:06.521Z,100924.50
2023-04-15T05:30:34.333Z,100925.22
2023-04-15T05:33:02.023Z,100930.47
2023-04-15T05:35:29.738Z,100929.44
2023-04-15T05:37:57.935Z,100929.44
2023-04-15T05:40:25.562Z,100935.56
2023-04-15T05:42:53.230Z,100933.97
2023-04-15T05:45:22.410Z,100940.19
2023-04-15T05:47:54.133Z,100941.97
2023-04-15T05:50:22.183Z,100948.19
2023-04-15T05:52:49.978Z,100949.03
2023-04-15T05:55:17.674Z,100951.88
2023-04-15T05:57:45.586Z,100952.91
2023-04-15T06:00:14.502Z,100958.28
2023-04-15T06:02:43.935Z,100966.16
2023-04-15T06:05:11.913Z,100974.06
2023-04-15T06:07:39.794Z,100971.31
2023-04-15T06:10:08.901Z,100975.75
2023-04-15T06:12:36.798Z,100982.69
2023-04-15T06:15:05.063Z,100975.03
2023-04-15T06:17:32.845Z,100977.44
2023-04-15T06:20:01.949Z,100990.41
2023-04-15T06:22:29.659Z,100990.91
2023-04-15T06:24:57.357Z,100985.66
2023-04-15T06:27:24.999Z,100993.16
2023-04-15T06:29:52.773Z,100996.31
2023-04-15T06:32:20.518Z,100998.72
2023-04-15T06:34:48.245Z,100990.72
2023-04-15T06:37:17.380Z,100988.75
2023-04-15T06:39:45.708Z,100994.53
2023-04-15T06:42:13.520Z,100996.00
2023-04-15T06:44:41.195Z,100992.94
2023-04-15T06:47:09.134Z,100997.03
2023-04-15T06:49:37.051Z,101007.38
2023-04-15T06:52:05.342Z,101009.78
2023-04-15T06:54:34.508Z,101005.28
2023-04-15T06:57:02.267Z,101008.66
2023-04-15T06:59:30.080Z,101014.66
2023-04-15T07:01:57.713Z,101007.47
2023-04-15T07:04:25.728Z,101005.78
2023-04-15T07:06:54.005Z,101009.69
2023-04-15T07:09:21.654Z,101012.13
2023-04-15T07:11:51.605Z,101012.84
2023-04-15T07:14:19.611Z,101022.31
2023-04-15T07:16:47.454Z,101018.84
2023-04-15T07:19:15.129Z,101014.31
2023-04-15T07:21:42.834Z,101026.34
2023-04-15T07:24:10.763Z,101031.38
2023-04-15T07:26:38.452Z,101029.28
2023-04-15T07:29:07.542Z,101029.06
2023-04-15T07:31:36.852Z,101039.06
2023-04-15T07:34:04.729Z,101039.69
2023-04-15T07:36:32.518Z,101047.59
2023-04-15T07:39:02.266Z,101048.38
2023-04-15T07:41:30.604Z,101054.38
2023-04-15T07:43:58.320Z,101048.13
2023-04-15T07:46:28.579Z,101048.66
2023-04-15T07:48:56.374Z,101050.34
2023-04-15T07:51:24.098Z,101053.50
2023-04-15T07:53:51.871Z,101061.94
2023-04-15T07:56:19.578Z,101061.72
2023-04-15T07:58:47.308Z,101059.81
2023-04-15T08:01:15.106Z,101066.75
2023-04-15T08:03:44.322Z,101070.16
2023-04-15T08:06:12.403Z,101077.72
2023-04-15T08:08:40.157Z,101078.34
2023-04-15T08:11:07.856Z,101074.13
2023-04-15T08:13:35.595Z,101080.47
2023-04-15T08:16:19.781Z,101076.88
2023-04-15T08:18:49.285Z,101083.63
2023-04-15T08:21:17.916Z,101077.72
2023-04-15T08:23:46.269Z,101081.06
2023-04-15T08:26:14.508Z,101080.25
2023-04-15T08:28:43.175Z,101087.00
2023-04-15T08:31:10.988Z,101090.34
2023-04-15T08:33:38.725Z,101087.84
2023-04-15T08:36:08.598Z,101090.47
2023-04-15T08:38:36.554Z,101090.34
2023-04-15T08:41:08.876Z,101090.25
2023-04-15T08:43:36.846Z,101092.88
2023-04-15T08:46:05.678Z,101093.94
2023-04-15T08:48:34.241Z,101096.81
2023-04-15T08:51:02.338Z,101094.91
2023-04-15T08:53:31.869Z,101096.47
2023-04-15T08:56:01.642Z,101102.16
2023-04-15T08:58:29.793Z,101108.16
2023-04-15T09:00:58.034Z,101102.69
2023-04-15T09:03:26.531Z,101102.97
2023-04-15T09:05:54.776Z,101096.84
2023-04-15T09:08:22.540Z,101112.84
2023-04-15T09:10:52.244Z,101110.72
2023-04-15T09:13:20.022Z,101119.91
2023-04-15T09:15:47.994Z,101118.94
2023-04-15T09:18:17.115Z,101118.69
2023-04-15T09:20:44.727Z,101128.09
2023-04-15T09:23:17.563Z,101129.91
2023-04-15T09:25:45.402Z,101134.44
2023-04-15T09:28:14.528Z,101137.69
2023-04-15T09:30:46.642Z,101127.75
2023-04-15T09:33:16.486Z,101137.13
2023-04-15T09:35:57.910Z,101137.97
2023-04-15T09:38:25.701Z,101144.22
2023-04-15T09:40:53.492Z,101146.63
2023-04-15T09:43:22.864Z,101146.88
2023-04-15T09:45:51.441Z,101139.25
2023-04-15T09:48:21.533Z,101142.75
2023-04-15T09:50:50.316Z,101147.41
2023-04-15T09:53:19.225Z,101163.88
2023-04-15T09:55:48.175Z,101156.47
2023-04-15T09:58:19.812Z,101157.06
2023-04-15T10:00:50.425Z,101155.78
2023-04-15T10:03:21.993Z,101163.50
2023-04-15T10:05:50.804Z,101167.81
2023-04-15T10:08:20.007Z,101151.69
2023-04-15T10:10:48.524Z,101167.81
2023-04-15T10:13:18.949Z,101170.22
2023-04-15T10:15:58.782Z,101175.19
2023-04-15T10:18:28.722Z,101174.00
2023-04-15T10:20:56.869Z,101170.31
2023-04-15T10:23:25.714Z,101170.91
2023-04-15T10:25:54.722Z,101170.91
2023-04-15T10:28:23.731Z,101179.78
2023-04-15T10:30:53.801Z,101174.84
2023-04-15T10:33:24.106Z,101176.88
2023-04-15T10:35:52.882Z,101184.06
2023-04-15T10:38:34.383Z,101185.75
2023-04-15T10:41:17.152Z,101193.78
2023-04-15T10:43:51.426Z,101182.28
2023-04-15T10:46:23.854Z,101198.72
2023-04-15T10:49:34.997Z,101185.34
2023-04-15T10:52:03.237Z,101203.13
2023-04-15T10:54:36.288Z,101197.09
2023-04-15T10:57:15.483Z,101194.69
2023-04-15T11:00:02.733Z,101198.03
2023-04-15T11:02:40.493Z,101205.25
2023-04-15T11:05:10.112Z,101203.31
2023-04-15T11:07:39.479Z,101194.25
2023-04-15T11:10:53.075Z,101198.31
2023-04-15T11:13:27.109Z,101204.13
2023-04-15T11:15:59.312Z,101198.97
2023-04-15T11:18:28.791Z,101213.22
2023-04-15T11:20:59.267Z,101203.72
2023-04-15T11:23:32.626Z,101208.91
2023-04-15T11:26:01.044Z,101210.97
2023-04-15T11:28:29.414Z,101215.69
2023-04-15T11:30:57.449Z,101210.81
2023-04-15T11:33:25.979Z,101217.66
2023-04-15T11:35:54.945Z,101216.72
2023-04-15T11:38:24.115Z,101217.44
2023-04-15T11:40:52.650Z,101223.69
2023-04-15T11:43:22.025Z,101218.41
2023-04-15T11:45:54.121Z,101228.97
2023-04-15T11:48:24.753Z,101226.44
2023-04-15T11:50:56.721Z,101232.66
2023-04-15T11:53:26.653Z,101232.19
2023-04-15T11:55:55.220Z,101234.91
2023-04-15T11:58:24.564Z,101236.84
2023-04-15T12:00:54.138Z,101228.59
2023-04-15T12:03:25.215Z,101244.31
2023-04-15T12:06:11.214Z,101240.59
2023-04-15T12:09:00.359Z,101235.31
2023-04-15T12:11:38.739Z,101243.03
2023-04-15T12:14:08.804Z,101240.16
2023-04-15T12:16:48.403Z,101242.69
2023-04-15T12:19:22.212Z,101253.16
2023-04-15T12:21:50.864Z,101254.94
2023-04-15T12:24:22.735Z,101256.13
2023-04-15T12:26:51.522Z,101265.97
2023-04-15T12:29:19.266Z,101277.50
2023-04-15T12:31:51.574Z,101274.00
2023-04-15T12:34:20.048Z,101277.50
2023-04-15T12:36:47.953Z,101284.25
2023-04-15T12:39:15.693Z,101284.13
2023-04-15T12:41:44.763Z,101287.28
2023-04-15T12:44:12.698Z,101286.66
2023-04-15T12:46:41.548Z,101311.63
2023-04-15T12:49:10.547Z,101303.19
2023-04-15T12:51:38.195Z,101304.66
2023-04-15T12:54:06.314Z,101301.56
2023-04-15T12:56:34.283Z,101302.31
2023-04-15T12:59:04.211Z,101301.09
2023-04-15T13:01:32.094Z,101311.50
2023-04-15T13:03:59.875Z,101308.09
2023-04-15T13:06:29.187Z,101313.31
2023-04-15T13:08:58.693Z,101307.19
2023-04-15T13:11:27.169Z,101310.75
2023-04-15T13:13:54.893Z,101316.56
2023-04-15T13:16:24.757Z,101318.13
2023-04-15T13:18:52.506Z,101318.63
2023-04-15T13:21:20.726Z,101313.72
2023-04-15T13:23:49.765Z,101321.13
2023-04-15T13:26:17.453Z,101316.78
2023-04-15T13:28:45.134Z,101315.09
2023-04-15T13:31:12.904Z,101324.91
2023-04-15T13:33:41.953Z,101325.84
2023-04-15T13:36:10.188Z,101325.84
2023-04-15T13:38:37.898Z,101323.44
2023-04-15T13:41:05.543Z,101328.94
2023-04-15T13:43:34.322Z,101330.84
2023-04-15T13:46:02.211Z,101335.72
2023-04-15T13:48:30.151Z,101342.31
2023-04-15T13:50:59.274Z,101339.03
2023-04-15T13:53:33.991Z,101343.06
2023-04-15T13:56:06.927Z,101351.50
2023-04-15T13:58:34.700Z,101349.78
2023-04-15T14:01:04.723Z,101347.91
2023-04-15T14:03:33.832Z,101355.84
2023-04-15T14:06:03.316Z,101359.44
2023-04-15T14:08:31.370Z,101355.06
2023-04-15T14:10:59.126Z,101366.72
2023-04-15T14:13:26.942Z,101360.59
2023-04-15T14:15:54.658Z,101369.38
2023-04-15T14:18:22.397Z,101358.38
2023-04-15T14:20:50.083Z,101369.47
2023-04-15T14:23:19.189Z,101368.53
2023-04-15T14:25:48.275Z,101379.31
2023-04-15T14:28:16.235Z,101379.53
2023-04-15T14:30:43.970Z,101376.16
2023-04-15T14:33:11.707Z,101381.22
2023-04-15T14:35:39.413Z,101387.25
2023-04-15T14:38:10.479Z,101396.84
2023-04-15T14:40:40.021Z,101390.09
2023-04-15T14:43:07.682Z,101399.69
2023-04-15T14:45:36.309Z,101399.69
2023-04-15T14:48:04.561Z,101397.06
2023-04-15T14:50:32.302Z,101412.81
2023-04-15T14:53:00.292Z,101415.56
2023-04-15T14:55:27.944Z,101413.25
2023-04-15T14:57:57.034Z,101422.44
2023-04-15T15:00:24.704Z,101423.81
2023-04-15T15:02:52.577Z,101425.63
2023-04-15T15:05:20.815Z,101419.38
2023-04-15T15:07:48.871Z,101429.34
2023-04-15T15:10:16.601Z,101431.13
2023-04-15T15:13:03.376Z,101426.03
2023-04-15T15:15:31.208Z,101437.69
2023-04-15T15:17:59.012Z,101438.63
2023-04-15T15:20:26.985Z,101432.38
2023-04-15T15:22:54.861Z,101435.16
2023-04-15T15:25:22.681Z,101442.13
2023-04-15T15:27:50.495Z,101443.16
2023-04-15T15:30:19.735Z,101444.09
2023-04-15T15:32:47.445Z,101444.22
2023-04-15T15:35:15.357Z,101455.84
2023-04-15T15:37:43.428Z,101460.91
2023-04-15T15:40:12.178Z,101462.94
2023-04-15T15:42:39.896Z,101464.81
2023-04-15T15:45:08.502Z,101469.34
2023-04-15T15:47:37.648Z,101477.59
2023-04-15T15:50:06.331Z,101474.41
2023-04-15T15:52:34.528Z,101472.19
2023-04-15T15:55:02.894Z,101478.63
2023-04-15T15:57:30.554Z,101488.34
2023-04-15T16:00:10.402Z,101489.38
2023-04-15T16:03:05.223Z,101484.31
2023-04-15T16:05:28.506Z,101492.34
2023-04-15T16:07:56.244Z,101494.03
2023-04-15T16:10:23.958Z,101496.78
2023-04-15T16:12:51.735Z,101485.78
2023-04-15T16:15:19.582Z,101501.41
2023-04-15T16:17:48.820Z,101498.88
2023-04-15T16:20:16.696Z,101503.94
2023-04-15T16:22:44.505Z,101502.06
2023-04-15T16:25:12.207Z,101516.00
2023-04-15T16:27:57.149Z,101509.88
2023-04-15T16:30:28.921Z,101501.19
2023-04-15T16:32:58.269Z,101507.63
2023-04-15T16:35:26.103Z,101524.41
2023-04-15T16:37:53.885Z,101512.06
2023-04-15T16:40:21.574Z,101527.16
2023-04-15T16:42:49.245Z,101526.31
2023-04-15T16:45:16.993Z,101531.31
2023-04-15T16:47:44.732Z,101536.50
2023-04-15T16:50:13.865Z,101537.56
2023-04-15T16:52:41.711Z,101534.81
2023-04-15T16:55:09.876Z,101539.25
2023-04-15T16:58:02.492Z,101536.06
2023-04-15T17:00:25.250Z,101541.63
2023-04-15T17:02:53.146Z,101544.38
2023-04-15T17:05:22.507Z,101541.00
2023-04-15T17:07:50.137Z,101547.97
2023-04-15T17:10:17.907Z,101548.16
2023-04-15T17:12:45.703Z,101555.03
2023-04-15T17:15:13.429Z,101555.88
2023-04-15T17:17:41.185Z,101558.41
2023-04-15T17:20:09.321Z,101558.53
2023-04-15T17:22:38.509Z,101564.44
2023-04-15T17:25:07.290Z,101566.22
2023-04-15T17:27:35.011Z,101567.19
2023-04-15T17:30:02.786Z,101576.03
2023-04-15T17:32:34.158Z,101576.03
2023-04-15T17:35:02.819Z,101571.78
2023-04-15T17:37:30.579Z,101579.69
2023-04-15T17:39:59.676Z,101586.97
2023-04-15T17:42:27.409Z,101584.53
2023-04-15T17:44:55.026Z,101582.06
2023-04-15T17:47:22.753Z,101591.78
2023-04-15T17:49:50.479Z,101588.19
2023-04-15T17:52:18.158Z,101594.31
2023-04-15T17:54:46.923Z,101604.13
2023-04-15T17:57:16.677Z,101604.88
2023-04-15T17:59:47.401Z,101604.34
2023-04-15T18:02:15.638Z,101607.91
2023-04-15T18:04:43.870Z,101606.41
2023-04-15T18:07:11.720Z,101610.09
2023-04-15T18:09:39.412Z,101611.03
2023-04-15T18:12:08.886Z,101616.22
2023-04-15T18:14:38.009Z,101620.75
2023-04-15T18:17:06.016Z,101605.47
2023-04-15T18:19:33.763Z,101636.00
2023-04-15T18:22:01.437Z,101634.47
2023-04-15T18:24:29.361Z,101635.31
2023-04-15T18:26:57.484Z,101636.34
2023-04-15T18:29:25.359Z,101632.03
2023-04-15T18:31:54.584Z,101644.28
2023-04-15T18:34:22.388Z,101638.22
2023-04-15T18:36:50.048Z,101647.75
2023-04-15T18:39:17.778Z,101649.34
2023-04-15T18:41:45.582Z,101643.31
2023-04-15T18:44:13.220Z,101653.19
2023-04-15T18:46:40.970Z,101654.03
2023-04-15T18:49:10.311Z,101669.03
2023-04-15T18:51:38.067Z,101671.75
2023-04-15T18:54:05.771Z,101666.66
2023-04-15T18:56:33.447Z,101669.38
2023-04-15T18:59:18.773Z,101680.88
2023-04-15T19:01:49.560Z,101685.19
2023-04-15T19:04:18.741Z,101682.31
2023-04-15T19:06:47.675Z,101692.69
2023-04-15T19:09:15.845Z,101698.69
2023-04-15T19:11:44.379Z,101703.22
2023-04-15T19:14:12.394Z,101712.06
2023-04-15T19:16:40.097Z,101715.63
2023-04-15T19:19:07.973Z,101713.84
2023-04-15T19:21:37.100Z,101713.00
2023-04-15T19:24:05.125Z,101717.31
2023-04-15T19:26:32.781Z,101716.41
2023-04-15T19:29:00.487Z,101720.75
2023-04-15T19:31:28.273Z,101733.16
2023-04-15T19:33:55.990Z,101727.88
2023-04-15T19:36:23.699Z,101737.41
2023-04-15T19:38:52.730Z,101733.94
2023-04-15T19:41:20.805Z,101732.03
2023-04-15T19:43:48.539Z,101738.09
2023-04-15T19:46:16.296Z,101745.06
2023-04-15T19:48:44.174Z,101743.53
2023-04-15T19:51:12.394Z,101750.84
2023-04-15T19:53:40.667Z,101737.75
2023-04-15T19:56:09.778Z,101746.59
2023-04-15T19:58:37.585Z,101740.66
2023-04-15T20:01:05.368Z,101738.03
2023-04-15T20:03:33.219Z,101739.72
2023-04-15T20:06:00.974Z,101743.84
2023-04-15T20:08:28.766Z,101746.34
2023-04-15T20:10:56.732Z,101747.13
2023-04-15T20:13:25.812Z,101737.56
2023-04-15T20:15:53.521Z,101740.16
2023-04-15T20:18:21.300Z,101744.47
2023-04-15T20:20:49.011Z,101747.13
2023-04-15T20:23:16.806Z,101749.66
2023-04-15T20:25:44.508Z,101748.72
2023-04-15T20:28:12.487Z,101744.38
2023-04-15T20:30:41.735Z,101741.75
2023-04-15T20:33:09.536Z,101733.16
2023-04-15T20:35:37.189Z,101748.81
2023-04-15T20:38:05.633Z,101745.44
2023-04-15T20:40:33.833Z,101740.22
2023-04-15T20:43:01.667Z,101738.78
2023-04-15T20:45:29.364Z,101738.78
2023-04-15T20:47:58.434Z,101738.59
2023-04-15T20:50:26.063Z,101743.84
2023-04-15T20:52:53.782Z,101752.38
2023-04-15T20:55:21.509Z,101761.25
2023-04-15T20:57:49.474Z,101747.44
2023-04-15T21:00:17.257Z,101751.03
2023-04-15T21:02:45.089Z,101750.69
2023-04-15T21:05:14.390Z,101753.34
2023-04-15T21:07:42.084Z,101749.13
2023-04-15T21:10:10.470Z,101766.84
2023-04-15T21:12:40.781Z,101768.72
2023-04-15T21:15:09.490Z,101775.88
2023-04-15T21:17:37.165Z,101766.19
2023-04-15T21:20:05.230Z,101756.00
2023-04-15T21:22:34.272Z,101760.31
2023-04-15T21:25:01.949Z,101760.97
2023-04-15T21:27:29.616Z,101761.75
2023-04-15T21:29:57.330Z,101761.75
2023-04-15T21:32:25.076Z,101766.00
2023-04-15T21:34:52.770Z,101767.78
2023-04-15T21:37:20.482Z,101762.78
2023-04-15T21:39:49.546Z,101772.31
2023-04-15T21:42:17.421Z,101779.44
2023-04-15T21:44:45.177Z,101787.53
2023-04-15T21:47:12.850Z,101786.78
2023-04-15T21:49:40.758Z,101797.13
2023-04-15T21:52:08.481Z,101805.81
2023-04-15T21:54:37.939Z,101796.19
2023-04-15T21:57:07.041Z,101800.53
2023-04-15T21:59:34.791Z,101799.88
2023-04-15T22:02:02.516Z,101809.38
2023-04-15T22:04:30.334Z,101814.66
2023-04-15T22:07:01.586Z,101806.84
2023-04-15T22:09:29.344Z,101820.22
2023-04-15T22:11:57.608Z,101814.94
2023-04-15T22:14:26.960Z,101828.78
2023-04-15T22:16:55.087Z,101826.91
2023-04-15T22:19:22.954Z,101822.56
2023-04-15T22:21:51.404Z,101824.53
2023-04-15T22:24:33.361Z,101827.09
2023-04-15T22:27:06.779Z,101828.69
2023-04-15T22:29:35.877Z,101826.72
2023-04-15T22:32:03.539Z,101831.81
2023-04-15T22:34:31.223Z,101833.50
2023-04-15T22:36:58.931Z,101829.09
2023-04-15T22:39:26.606Z,101832.50
2023-04-15T22:41:54.298Z,101834.13
2023-04-15T22:44:21.952Z,101827.16
2023-04-15T22:46:52.844Z,101830.72
2023-04-15T22:49:20.543Z,101830.72
2023-04-15T22:51:48.272Z,101827.38
2023-04-15T22:54:15.893Z,101828.97
2023-04-15T22:56:43.566Z,101842.06
2023-04-15T22:59:11.464Z,101836.94
2023-04-15T23:01:39.419Z,101843.06
2023-04-15T23:04:25.394Z,101849.00
2023-04-15T23:06:54.148Z,101848.06
2023-04-15T23:09:22.490Z,101847.13
2023-04-15T23:11:50.481Z,101859.41
2023-04-15T23:14:18.185Z,101850.66
2023-04-15T23:16:46.398Z,101853.28
2023-04-15T23:19:15.830Z,101851.56
2023-04-15T23:21:43.473Z,101856.59
2023-04-15T23:24:11.186Z,101850.38
2023-04-15T23:26:38.826Z,101853.00
2023-04-15T23:29:06.543Z,101849.59
2023-04-15T23:31:34.443Z,101863.75
2023-04-15T23:34:02.309Z,101856.59
2023-04-15T23:36:31.962Z,101859.97
2023-04-15T23:38:59.874Z,101850.38
2023-04-15T23:41:27.511Z,101854.69
2023-04-15T23:43:55.134Z,101867.88
2023-04-15T23:46:22.884Z,101853.75
2023-04-15T23:48:50.605Z,101862.59
2023-04-15T23:51:18.334Z,101863.44
2023-04-15T23:53:47.548Z,101868.72
2023-04-15T23:56:15.712Z,101877.50
2023-04-15T23:58:43.383Z,101875.63
